< < Back
Terminal Aerodrome Forecast


Current Version              Previous Versions:   1  2  3  4  5  6  7  8  9  

Terminal Aerodrome Forecast

120
FTUS42 KTAE 231100
TAFDHN
TAF
KDHN 231120Z 2312/2412 00000KT 6SM BR SKC
     FM231300 22007KT P6SM SCT050
     FM240000 00000KT P6SM SKC=



Latest METAR

143
SAUS70 KWBC 240600 RRH
MTRDHN
METAR KDHN 240553Z AUTO 21005KT 10SM CLR 24/22 A3004 RMK AO2 SLP166
T02390222 10294 20239 403220211 58006


USA.gov is the U.S. government's official web portal to all federal, state and local government web resources and services.